sensor_id;sensor_type;location;lat;lon;timestamp;P1;durP1;ratioP1;P2;durP2;ratioP2
20110;SDS011;10216;42.658;23.248;2023-12-04T00:00:38;2.40;;;1.83;;
20110;SDS011;10216;42.658;23.248;2023-12-04T00:03:04;2.97;;;2.13;;
20110;SDS011;10216;42.658;23.248;2023-12-04T00:05:29;3.33;;;2.30;;
20110;SDS011;10216;42.658;23.248;2023-12-04T00:07:55;3.13;;;1.90;;
20110;SDS011;10216;42.658;23.248;2023-12-04T00:10:20;3.97;;;2.10;;
20110;SDS011;10216;42.658;23.248;2023-12-04T00:12:46;2.50;;;2.20;;
20110;SDS011;10216;42.658;23.248;2023-12-04T00:15:11;2.20;;;1.70;;
20110;SDS011;10216;42.658;23.248;2023-12-04T00:17:37;3.77;;;1.90;;
20110;SDS011;10216;42.658;23.248;2023-12-04T00:20:08;1.67;;;1.43;;
20110;SDS011;10216;42.658;23.248;2023-12-04T00:22:37;2.50;;;1.97;;
20110;SDS011;10216;42.658;23.248;2023-12-04T00:25:03;2.10;;;1.90;;
20110;SDS011;10216;42.658;23.248;2023-12-04T00:27:30;1.90;;;1.67;;
20110;SDS011;10216;42.658;23.248;2023-12-04T00:29:55;2.40;;;1.80;;
20110;SDS011;10216;42.658;23.248;2023-12-04T00:32:21;2.47;;;1.73;;
20110;SDS011;10216;42.658;23.248;2023-12-04T00:34:46;2.33;;;1.93;;
20110;SDS011;10216;42.658;23.248;2023-12-04T00:37:12;3.00;;;2.10;;
20110;SDS011;10216;42.658;23.248;2023-12-04T00:39:38;2.23;;;1.83;;
20110;SDS011;10216;42.658;23.248;2023-12-04T00:42:03;2.73;;;1.93;;
20110;SDS011;10216;42.658;23.248;2023-12-04T00:44:29;2.50;;;1.80;;
20110;SDS011;10216;42.658;23.248;2023-12-04T00:46:54;2.50;;;2.10;;
20110;SDS011;10216;42.658;23.248;2023-12-04T00:49:20;3.37;;;2.20;;
20110;SDS011;10216;42.658;23.248;2023-12-04T00:51:45;2.97;;;1.87;;
20110;SDS011;10216;42.658;23.248;2023-12-04T00:54:11;2.63;;;1.83;;
20110;SDS011;10216;42.658;23.248;2023-12-04T00:56:39;2.90;;;2.03;;
20110;SDS011;10216;42.658;23.248;2023-12-04T00:59:05;2.13;;;1.73;;
20110;SDS011;10216;42.658;23.248;2023-12-04T01:01:32;2.50;;;2.00;;
20110;SDS011;10216;42.658;23.248;2023-12-04T01:03:57;2.47;;;2.20;;
20110;SDS011;10216;42.658;23.248;2023-12-04T01:06:23;2.87;;;2.27;;
20110;SDS011;10216;42.658;23.248;2023-12-04T01:08:49;3.40;;;2.30;;
20110;SDS011;10216;42.658;23.248;2023-12-04T01:11:15;2.77;;;2.10;;
20110;SDS011;10216;42.658;23.248;2023-12-04T01:13:42;2.67;;;2.00;;
20110;SDS011;10216;42.658;23.248;2023-12-04T01:16:08;2.90;;;2.43;;
20110;SDS011;10216;42.658;23.248;2023-12-04T01:18:34;3.17;;;2.40;;
20110;SDS011;10216;42.658;23.248;2023-12-04T01:20:59;2.83;;;2.00;;
20110;SDS011;10216;42.658;23.248;2023-12-04T01:23:25;2.67;;;2.20;;
20110;SDS011;10216;42.658;23.248;2023-12-04T01:25:50;2.37;;;2.17;;
20110;SDS011;10216;42.658;23.248;2023-12-04T01:28:16;2.40;;;2.03;;
20110;SDS011;10216;42.658;23.248;2023-12-04T01:30:41;2.93;;;2.27;;
20110;SDS011;10216;42.658;23.248;2023-12-04T01:33:07;2.77;;;2.03;;
20110;SDS011;10216;42.658;23.248;2023-12-04T01:35:33;2.97;;;2.03;;
20110;SDS011;10216;42.658;23.248;2023-12-04T01:37:59;3.07;;;2.57;;
20110;SDS011;10216;42.658;23.248;2023-12-04T01:40:24;3.63;;;2.80;;
20110;SDS011;10216;42.658;23.248;2023-12-04T01:42:51;2.77;;;1.80;;
20110;SDS011;10216;42.658;23.248;2023-12-04T01:45:16;2.90;;;2.27;;
20110;SDS011;10216;42.658;23.248;2023-12-04T01:47:42;2.67;;;2.17;;
20110;SDS011;10216;42.658;23.248;2023-12-04T01:50:08;2.97;;;2.10;;
20110;SDS011;10216;42.658;23.248;2023-12-04T01:52:34;2.93;;;2.33;;
20110;SDS011;10216;42.658;23.248;2023-12-04T01:55:01;2.10;;;1.83;;
20110;SDS011;10216;42.658;23.248;2023-12-04T01:57:27;2.37;;;2.00;;
20110;SDS011;10216;42.658;23.248;2023-12-04T01:59:53;3.20;;;2.03;;
20110;SDS011;10216;42.658;23.248;2023-12-04T02:02:19;2.57;;;1.87;;
20110;SDS011;10216;42.658;23.248;2023-12-04T02:04:45;3.70;;;2.57;;
20110;SDS011;10216;42.658;23.248;2023-12-04T02:07:11;3.53;;;2.20;;
20110;SDS011;10216;42.658;23.248;2023-12-04T02:09:37;4.70;;;2.70;;
20110;SDS011;10216;42.658;23.248;2023-12-04T02:12:03;3.50;;;2.47;;
20110;SDS011;10216;42.658;23.248;2023-12-04T02:14:29;2.40;;;1.90;;
20110;SDS011;10216;42.658;23.248;2023-12-04T02:16:54;3.43;;;2.30;;
20110;SDS011;10216;42.658;23.248;2023-12-04T02:19:21;2.93;;;2.23;;
20110;SDS011;10216;42.658;23.248;2023-12-04T02:21:47;3.67;;;2.70;;
20110;SDS011;10216;42.658;23.248;2023-12-04T02:24:12;2.83;;;2.37;;
20110;SDS011;10216;42.658;23.248;2023-12-04T02:26:46;2.80;;;2.07;;
20110;SDS011;10216;42.658;23.248;2023-12-04T02:29:19;2.57;;;2.33;;
20110;SDS011;10216;42.658;23.248;2023-12-04T02:31:54;2.50;;;2.10;;
20110;SDS011;10216;42.658;23.248;2023-12-04T02:34:22;3.10;;;2.43;;
20110;SDS011;10216;42.658;23.248;2023-12-04T02:36:49;3.10;;;2.20;;
20110;SDS011;10216;42.658;23.248;2023-12-04T02:39:16;3.10;;;2.20;;
20110;SDS011;10216;42.658;23.248;2023-12-04T02:41:42;2.43;;;2.00;;
20110;SDS011;10216;42.658;23.248;2023-12-04T02:44:07;2.27;;;2.03;;
20110;SDS011;10216;42.658;23.248;2023-12-04T02:46:33;2.60;;;2.07;;
20110;SDS011;10216;42.658;23.248;2023-12-04T02:48:58;2.57;;;2.03;;
20110;SDS011;10216;42.658;23.248;2023-12-04T02:51:24;2.97;;;2.30;;
20110;SDS011;10216;42.658;23.248;2023-12-04T02:53:51;2.17;;;1.80;;
20110;SDS011;10216;42.658;23.248;2023-12-04T02:56:17;2.63;;;1.93;;
20110;SDS011;10216;42.658;23.248;2023-12-04T02:58:42;2.73;;;2.00;;
20110;SDS011;10216;42.658;23.248;2023-12-04T03:01:08;2.97;;;2.30;;
20110;SDS011;10216;42.658;23.248;2023-12-04T03:03:33;2.83;;;2.17;;
20110;SDS011;10216;42.658;23.248;2023-12-04T03:05:59;4.17;;;2.57;;
20110;SDS011;10216;42.658;23.248;2023-12-04T03:08:24;3.90;;;2.30;;
20110;SDS011;10216;42.658;23.248;2023-12-04T03:10:50;3.40;;;2.63;;
20110;SDS011;10216;42.658;23.248;2023-12-04T03:13:15;2.60;;;2.30;;
20110;SDS011;10216;42.658;23.248;2023-12-04T03:15:41;3.37;;;2.27;;
20110;SDS011;10216;42.658;23.248;2023-12-04T03:18:06;3.43;;;2.37;;
20110;SDS011;10216;42.658;23.248;2023-12-04T03:20:32;2.53;;;2.30;;
20110;SDS011;10216;42.658;23.248;2023-12-04T03:22:58;5.53;;;2.43;;
20110;SDS011;10216;42.658;23.248;2023-12-04T03:25:23;2.50;;;2.10;;
20110;SDS011;10216;42.658;23.248;2023-12-04T03:27:49;2.80;;;2.23;;
20110;SDS011;10216;42.658;23.248;2023-12-04T03:30:14;4.13;;;2.77;;
20110;SDS011;10216;42.658;23.248;2023-12-04T03:32:40;3.00;;;2.70;;
20110;SDS011;10216;42.658;23.248;2023-12-04T03:35:05;2.60;;;1.87;;
20110;SDS011;10216;42.658;23.248;2023-12-04T03:37:31;3.27;;;2.03;;
20110;SDS011;10216;42.658;23.248;2023-12-04T03:39:56;3.07;;;2.70;;
20110;SDS011;10216;42.658;23.248;2023-12-04T03:42:22;3.83;;;2.33;;
20110;SDS011;10216;42.658;23.248;2023-12-04T03:44:47;2.20;;;2.00;;
20110;SDS011;10216;42.658;23.248;2023-12-04T03:47:13;2.67;;;1.87;;
20110;SDS011;10216;42.658;23.248;2023-12-04T03:49:38;3.27;;;2.40;;
20110;SDS011;10216;42.658;23.248;2023-12-04T03:52:04;4.37;;;2.63;;
20110;SDS011;10216;42.658;23.248;2023-12-04T03:54:29;2.97;;;2.67;;
20110;SDS011;10216;42.658;23.248;2023-12-04T03:56:55;4.40;;;2.80;;
20110;SDS011;10216;42.658;23.248;2023-12-04T03:59:20;3.67;;;2.63;;
20110;SDS011;10216;42.658;23.248;2023-12-04T04:01:46;3.10;;;2.50;;
20110;SDS011;10216;42.658;23.248;2023-12-04T04:04:11;4.37;;;3.13;;
20110;SDS011;10216;42.658;23.248;2023-12-04T04:06:37;3.40;;;2.60;;
20110;SDS011;10216;42.658;23.248;2023-12-04T04:09:04;3.87;;;2.33;;
20110;SDS011;10216;42.658;23.248;2023-12-04T04:11:30;3.40;;;2.47;;
20110;SDS011;10216;42.658;23.248;2023-12-04T04:13:55;2.53;;;2.20;;
20110;SDS011;10216;42.658;23.248;2023-12-04T04:16:21;3.10;;;2.77;;
20110;SDS011;10216;42.658;23.248;2023-12-04T04:18:46;3.07;;;2.10;;
20110;SDS011;10216;42.658;23.248;2023-12-04T04:21:12;5.47;;;2.30;;
20110;SDS011;10216;42.658;23.248;2023-12-04T04:23:37;7.70;;;4.53;;
20110;SDS011;10216;42.658;23.248;2023-12-04T04:26:03;8.50;;;4.67;;
20110;SDS011;10216;42.658;23.248;2023-12-04T04:28:28;7.70;;;3.70;;
20110;SDS011;10216;42.658;23.248;2023-12-04T04:30:54;9.70;;;4.43;;
20110;SDS011;10216;42.658;23.248;2023-12-04T04:33:19;5.73;;;2.77;;
20110;SDS011;10216;42.658;23.248;2023-12-04T04:35:45;2.27;;;2.07;;
20110;SDS011;10216;42.658;23.248;2023-12-04T04:38:10;7.40;;;4.07;;
20110;SDS011;10216;42.658;23.248;2023-12-04T04:40:36;2.37;;;2.17;;
20110;SDS011;10216;42.658;23.248;2023-12-04T04:43:01;10.57;;;4.93;;
20110;SDS011;10216;42.658;23.248;2023-12-04T04:45:27;10.80;;;5.07;;
20110;SDS011;10216;42.658;23.248;2023-12-04T04:47:52;5.23;;;3.70;;
20110;SDS011;10216;42.658;23.248;2023-12-04T04:50:17;4.53;;;3.40;;
20110;SDS011;10216;42.658;23.248;2023-12-04T04:52:43;6.83;;;4.47;;
20110;SDS011;10216;42.658;23.248;2023-12-04T04:55:08;21.23;;;9.80;;
20110;SDS011;10216;42.658;23.248;2023-12-04T04:57:34;4.63;;;3.37;;
20110;SDS011;10216;42.658;23.248;2023-12-04T04:59:59;4.97;;;3.47;;
20110;SDS011;10216;42.658;23.248;2023-12-04T05:02:25;23.90;;;12.10;;
20110;SDS011;10216;42.658;23.248;2023-12-04T05:04:50;7.27;;;3.47;;
20110;SDS011;10216;42.658;23.248;2023-12-04T05:07:16;9.80;;;4.53;;
20110;SDS011;10216;42.658;23.248;2023-12-04T05:09:41;8.63;;;4.40;;
20110;SDS011;10216;42.658;23.248;2023-12-04T05:12:07;2.80;;;2.50;;
20110;SDS011;10216;42.658;23.248;2023-12-04T05:14:32;2.33;;;1.97;;
20110;SDS011;10216;42.658;23.248;2023-12-04T05:16:58;11.40;;;6.27;;
20110;SDS011;10216;42.658;23.248;2023-12-04T05:19:24;16.37;;;9.13;;
20110;SDS011;10216;42.658;23.248;2023-12-04T05:21:49;4.17;;;2.67;;
20110;SDS011;10216;42.658;23.248;2023-12-04T05:24:15;2.20;;;2.00;;
20110;SDS011;10216;42.658;23.248;2023-12-04T05:26:40;5.67;;;2.83;;
20110;SDS011;10216;42.658;23.248;2023-12-04T05:29:06;4.47;;;3.37;;
20110;SDS011;10216;42.658;23.248;2023-12-04T05:31:31;6.40;;;3.83;;
20110;SDS011;10216;42.658;23.248;2023-12-04T05:33:57;3.50;;;2.73;;
20110;SDS011;10216;42.658;23.248;2023-12-04T05:36:22;3.63;;;2.77;;
20110;SDS011;10216;42.658;23.248;2023-12-04T05:38:47;4.20;;;2.70;;
20110;SDS011;10216;42.658;23.248;2023-12-04T05:41:13;3.40;;;2.13;;
20110;SDS011;10216;42.658;23.248;2023-12-04T05:43:38;7.50;;;4.03;;
20110;SDS011;10216;42.658;23.248;2023-12-04T05:46:04;4.17;;;2.67;;
20110;SDS011;10216;42.658;23.248;2023-12-04T05:48:29;5.87;;;2.77;;
20110;SDS011;10216;42.658;23.248;2023-12-04T05:50:55;4.23;;;2.87;;
20110;SDS011;10216;42.658;23.248;2023-12-04T05:53:20;3.07;;;2.60;;
20110;SDS011;10216;42.658;23.248;2023-12-04T05:55:46;3.33;;;2.60;;
20110;SDS011;10216;42.658;23.248;2023-12-04T05:58:11;4.60;;;2.63;;
20110;SDS011;10216;42.658;23.248;2023-12-04T06:00:37;3.63;;;2.80;;
20110;SDS011;10216;42.658;23.248;2023-12-04T06:03:02;2.83;;;2.33;;
20110;SDS011;10216;42.658;23.248;2023-12-04T06:05:28;3.90;;;2.60;;
20110;SDS011;10216;42.658;23.248;2023-12-04T06:07:53;4.03;;;2.60;;
20110;SDS011;10216;42.658;23.248;2023-12-04T06:10:19;4.73;;;2.60;;
20110;SDS011;10216;42.658;23.248;2023-12-04T06:12:44;2.20;;;2.00;;
20110;SDS011;10216;42.658;23.248;2023-12-04T06:15:10;3.93;;;2.27;;
20110;SDS011;10216;42.658;23.248;2023-12-04T06:17:35;2.37;;;2.17;;
20110;SDS011;10216;42.658;23.248;2023-12-04T06:20:01;4.50;;;2.57;;
20110;SDS011;10216;42.658;23.248;2023-12-04T06:22:26;2.97;;;2.40;;
20110;SDS011;10216;42.658;23.248;2023-12-04T06:24:52;2.23;;;1.93;;
20110;SDS011;10216;42.658;23.248;2023-12-04T06:27:18;2.60;;;2.20;;
20110;SDS011;10216;42.658;23.248;2023-12-04T06:29:45;3.10;;;2.20;;
20110;SDS011;10216;42.658;23.248;2023-12-04T06:32:12;2.80;;;2.30;;
20110;SDS011;10216;42.658;23.248;2023-12-04T06:34:38;2.40;;;2.00;;
20110;SDS011;10216;42.658;23.248;2023-12-04T06:37:03;4.27;;;2.57;;
20110;SDS011;10216;42.658;23.248;2023-12-04T06:39:36;4.03;;;2.33;;
20110;SDS011;10216;42.658;23.248;2023-12-04T06:42:03;4.03;;;2.73;;
20110;SDS011;10216;42.658;23.248;2023-12-04T06:44:30;4.57;;;2.00;;
20110;SDS011;10216;42.658;23.248;2023-12-04T06:46:56;3.47;;;2.20;;
20110;SDS011;10216;42.658;23.248;2023-12-04T06:49:25;3.17;;;2.87;;
20110;SDS011;10216;42.658;23.248;2023-12-04T06:51:55;2.83;;;2.40;;
20110;SDS011;10216;42.658;23.248;2023-12-04T06:54:21;3.47;;;2.60;;
20110;SDS011;10216;42.658;23.248;2023-12-04T06:56:46;2.50;;;2.00;;
20110;SDS011;10216;42.658;23.248;2023-12-04T06:59:12;3.97;;;2.40;;
20110;SDS011;10216;42.658;23.248;2023-12-04T07:01:37;2.83;;;2.30;;
20110;SDS011;10216;42.658;23.248;2023-12-04T07:04:03;3.47;;;2.43;;
20110;SDS011;10216;42.658;23.248;2023-12-04T07:06:35;3.53;;;2.17;;
20110;SDS011;10216;42.658;23.248;2023-12-04T07:09:06;4.23;;;2.33;;
20110;SDS011;10216;42.658;23.248;2023-12-04T07:11:35;4.20;;;2.73;;
20110;SDS011;10216;42.658;23.248;2023-12-04T07:14:00;4.23;;;3.00;;
20110;SDS011;10216;42.658;23.248;2023-12-04T07:16:26;3.20;;;2.50;;
20110;SDS011;10216;42.658;23.248;2023-12-04T07:18:51;4.80;;;3.03;;
20110;SDS011;10216;42.658;23.248;2023-12-04T07:21:17;9.87;;;5.03;;
20110;SDS011;10216;42.658;23.248;2023-12-04T07:23:42;5.70;;;3.40;;
20110;SDS011;10216;42.658;23.248;2023-12-04T07:26:08;5.60;;;3.80;;
20110;SDS011;10216;42.658;23.248;2023-12-04T07:28:35;4.20;;;3.17;;
20110;SDS011;10216;42.658;23.248;2023-12-04T07:31:01;5.00;;;3.20;;
20110;SDS011;10216;42.658;23.248;2023-12-04T07:33:27;3.30;;;2.63;;
20110;SDS011;10216;42.658;23.248;2023-12-04T07:35:53;4.70;;;3.33;;
20110;SDS011;10216;42.658;23.248;2023-12-04T07:38:18;3.43;;;2.60;;
20110;SDS011;10216;42.658;23.248;2023-12-04T07:40:44;3.73;;;2.63;;
20110;SDS011;10216;42.658;23.248;2023-12-04T07:43:10;3.70;;;2.70;;
20110;SDS011;10216;42.658;23.248;2023-12-04T07:45:36;3.23;;;2.13;;
20110;SDS011;10216;42.658;23.248;2023-12-04T07:48:03;3.23;;;2.57;;
20110;SDS011;10216;42.658;23.248;2023-12-04T07:50:29;10.83;;;5.27;;
20110;SDS011;10216;42.658;23.248;2023-12-04T07:52:54;5.37;;;2.40;;
20110;SDS011;10216;42.658;23.248;2023-12-04T07:55:20;4.10;;;2.90;;
20110;SDS011;10216;42.658;23.248;2023-12-04T07:57:45;2.80;;;2.27;;
20110;SDS011;10216;42.658;23.248;2023-12-04T08:00:11;3.80;;;2.50;;
20110;SDS011;10216;42.658;23.248;2023-12-04T08:02:37;4.17;;;2.17;;
20110;SDS011;10216;42.658;23.248;2023-12-04T08:05:02;2.67;;;2.17;;
20110;SDS011;10216;42.658;23.248;2023-12-04T08:07:28;2.67;;;2.47;;
20110;SDS011;10216;42.658;23.248;2023-12-04T08:09:54;3.90;;;2.73;;
20110;SDS011;10216;42.658;23.248;2023-12-04T08:12:19;3.40;;;2.67;;
20110;SDS011;10216;42.658;23.248;2023-12-04T08:14:45;3.57;;;2.60;;
20110;SDS011;10216;42.658;23.248;2023-12-04T08:17:11;5.43;;;3.70;;
20110;SDS011;10216;42.658;23.248;2023-12-04T08:19:37;4.07;;;2.80;;
20110;SDS011;10216;42.658;23.248;2023-12-04T08:22:03;3.77;;;2.60;;
20110;SDS011;10216;42.658;23.248;2023-12-04T08:24:29;3.97;;;2.40;;
20110;SDS011;10216;42.658;23.248;2023-12-04T08:26:56;3.73;;;2.17;;
20110;SDS011;10216;42.658;23.248;2023-12-04T08:29:22;4.37;;;2.40;;
20110;SDS011;10216;42.658;23.248;2023-12-04T08:31:47;5.63;;;2.17;;
20110;SDS011;10216;42.658;23.248;2023-12-04T08:34:13;3.50;;;2.00;;
20110;SDS011;10216;42.658;23.248;2023-12-04T08:36:38;2.00;;;1.63;;
20110;SDS011;10216;42.658;23.248;2023-12-04T08:39:04;2.13;;;1.63;;
20110;SDS011;10216;42.658;23.248;2023-12-04T08:41:29;2.23;;;1.87;;
20110;SDS011;10216;42.658;23.248;2023-12-04T08:43:55;5.63;;;2.93;;
20110;SDS011;10216;42.658;23.248;2023-12-04T08:46:20;8.60;;;4.87;;
20110;SDS011;10216;42.658;23.248;2023-12-04T08:48:46;2.37;;;2.00;;
20110;SDS011;10216;42.658;23.248;2023-12-04T08:51:18;2.77;;;2.07;;
20110;SDS011;10216;42.658;23.248;2023-12-04T08:53:43;2.77;;;2.10;;
20110;SDS011;10216;42.658;23.248;2023-12-04T08:56:09;3.07;;;2.20;;
20110;SDS011;10216;42.658;23.248;2023-12-04T08:58:35;2.53;;;2.00;;
20110;SDS011;10216;42.658;23.248;2023-12-04T09:01:01;3.13;;;2.07;;
20110;SDS011;10216;42.658;23.248;2023-12-04T09:03:27;4.80;;;2.03;;
20110;SDS011;10216;42.658;23.248;2023-12-04T09:05:52;0.70;;;0.70;;
20110;SDS011;10216;42.658;23.248;2023-12-04T09:08:20;0.47;;;0.47;;
20110;SDS011;10216;42.658;23.248;2023-12-04T09:10:47;1.00;;;0.80;;
20110;SDS011;10216;42.658;23.248;2023-12-04T09:13:13;2.60;;;2.00;;
20110;SDS011;10216;42.658;23.248;2023-12-04T09:15:39;0.20;;;0.20;;
20110;SDS011;10216;42.658;23.248;2023-12-04T09:18:04;0.90;;;0.63;;
20110;SDS011;10216;42.658;23.248;2023-12-04T09:20:30;0.63;;;0.63;;
20110;SDS011;10216;42.658;23.248;2023-12-04T09:22:55;0.50;;;0.50;;
20110;SDS011;10216;42.658;23.248;2023-12-04T09:25:21;0.67;;;0.67;;
20110;SDS011;10216;42.658;23.248;2023-12-04T09:27:46;0.50;;;0.50;;
20110;SDS011;10216;42.658;23.248;2023-12-04T09:30:12;1.00;;;0.70;;
20110;SDS011;10216;42.658;23.248;2023-12-04T09:32:38;0.97;;;0.47;;
20110;SDS011;10216;42.658;23.248;2023-12-04T09:35:04;1.13;;;0.83;;
20110;SDS011;10216;42.658;23.248;2023-12-04T09:37:30;2.10;;;0.70;;
20110;SDS011;10216;42.658;23.248;2023-12-04T09:39:55;0.40;;;0.40;;
20110;SDS011;10216;42.658;23.248;2023-12-04T09:42:21;0.60;;;0.60;;
20110;SDS011;10216;42.658;23.248;2023-12-04T09:44:47;0.30;;;0.30;;
20110;SDS011;10216;42.658;23.248;2023-12-04T09:47:14;1.23;;;0.43;;
20110;SDS011;10216;42.658;23.248;2023-12-04T09:49:43;0.63;;;0.57;;
20110;SDS011;10216;42.658;23.248;2023-12-04T09:52:09;0.20;;;0.20;;
20110;SDS011;10216;42.658;23.248;2023-12-04T09:54:36;0.33;;;0.33;;
20110;SDS011;10216;42.658;23.248;2023-12-04T09:57:03;0.97;;;0.70;;
20110;SDS011;10216;42.658;23.248;2023-12-04T09:59:30;0.87;;;0.87;;
20110;SDS011;10216;42.658;23.248;2023-12-04T10:01:56;0.93;;;0.53;;
20110;SDS011;10216;42.658;23.248;2023-12-04T10:04:22;0.20;;;0.20;;
20110;SDS011;10216;42.658;23.248;2023-12-04T10:06:49;0.57;;;0.57;;
20110;SDS011;10216;42.658;23.248;2023-12-04T10:09:17;0.70;;;0.70;;
20110;SDS011;10216;42.658;23.248;2023-12-04T10:11:46;1.37;;;0.93;;
20110;SDS011;10216;42.658;23.248;2023-12-04T10:14:15;0.60;;;0.60;;
20110;SDS011;10216;42.658;23.248;2023-12-04T10:16:43;0.20;;;0.20;;
20110;SDS011;10216;42.658;23.248;2023-12-04T10:19:30;0.20;;;0.20;;
20110;SDS011;10216;42.658;23.248;2023-12-04T10:21:56;0.60;;;0.43;;
20110;SDS011;10216;42.658;23.248;2023-12-04T10:24:28;0.20;;;0.20;;
20110;SDS011;10216;42.658;23.248;2023-12-04T10:26:58;0.10;;;0.10;;
20110;SDS011;10216;42.658;23.248;2023-12-04T10:29:28;2.20;;;1.00;;
20110;SDS011;10216;42.658;23.248;2023-12-04T10:32:00;0.67;;;0.67;;
20110;SDS011;10216;42.658;23.248;2023-12-04T10:34:25;0.40;;;0.40;;
20110;SDS011;10216;42.658;23.248;2023-12-04T10:36:51;0.23;;;0.23;;
20110;SDS011;10216;42.658;23.248;2023-12-04T10:39:17;0.53;;;0.53;;
20110;SDS011;10216;42.658;23.248;2023-12-04T10:41:43;0.87;;;0.50;;
20110;SDS011;10216;42.658;23.248;2023-12-04T10:44:09;0.37;;;0.37;;
20110;SDS011;10216;42.658;23.248;2023-12-04T10:46:40;0.30;;;0.30;;
20110;SDS011;10216;42.658;23.248;2023-12-04T10:49:07;0.93;;;0.93;;
20110;SDS011;10216;42.658;23.248;2023-12-04T10:51:35;2.33;;;1.60;;
20110;SDS011;10216;42.658;23.248;2023-12-04T10:54:01;1.03;;;0.33;;
20110;SDS011;10216;42.658;23.248;2023-12-04T10:56:31;0.67;;;0.50;;
20110;SDS011;10216;42.658;23.248;2023-12-04T10:59:03;2.80;;;0.97;;
20110;SDS011;10216;42.658;23.248;2023-12-04T11:01:35;0.90;;;0.87;;
20110;SDS011;10216;42.658;23.248;2023-12-04T11:04:02;0.83;;;0.83;;
20110;SDS011;10216;42.658;23.248;2023-12-04T11:06:33;1.17;;;1.07;;
20110;SDS011;10216;42.658;23.248;2023-12-04T11:09:04;1.30;;;1.13;;
20110;SDS011;10216;42.658;23.248;2023-12-04T11:11:31;4.37;;;1.00;;
20110;SDS011;10216;42.658;23.248;2023-12-04T11:14:01;0.83;;;0.60;;
20110;SDS011;10216;42.658;23.248;2023-12-04T11:22:03;0.30;;;0.30;;
20110;SDS011;10216;42.658;23.248;2023-12-04T11:24:32;0.83;;;0.83;;
20110;SDS011;10216;42.658;23.248;2023-12-04T11:26:57;0.93;;;0.60;;
20110;SDS011;10216;42.658;23.248;2023-12-04T11:29:23;0.50;;;0.50;;
20110;SDS011;10216;42.658;23.248;2023-12-04T11:31:50;1.77;;;0.97;;
20110;SDS011;10216;42.658;23.248;2023-12-04T11:34:15;0.90;;;0.87;;
20110;SDS011;10216;42.658;23.248;2023-12-04T11:36:41;1.10;;;1.00;;
20110;SDS011;10216;42.658;23.248;2023-12-04T11:39:10;1.10;;;1.00;;
20110;SDS011;10216;42.658;23.248;2023-12-04T11:41:36;2.40;;;1.87;;
20110;SDS011;10216;42.658;23.248;2023-12-04T11:44:02;3.30;;;1.83;;
20110;SDS011;10216;42.658;23.248;2023-12-04T11:46:28;2.63;;;2.00;;
20110;SDS011;10216;42.658;23.248;2023-12-04T11:49:40;2.53;;;2.33;;
20110;SDS011;10216;42.658;23.248;2023-12-04T11:51:50;3.70;;;2.50;;
20110;SDS011;10216;42.658;23.248;2023-12-04T11:54:17;3.37;;;2.50;;
20110;SDS011;10216;42.658;23.248;2023-12-04T11:57:12;2.40;;;2.20;;
20110;SDS011;10216;42.658;23.248;2023-12-04T11:59:41;3.87;;;2.63;;
20110;SDS011;10216;42.658;23.248;2023-12-04T12:02:07;3.23;;;2.67;;
20110;SDS011;10216;42.658;23.248;2023-12-04T12:04:33;2.90;;;2.60;;
20110;SDS011;10216;42.658;23.248;2023-12-04T12:06:59;3.03;;;2.40;;
20110;SDS011;10216;42.658;23.248;2023-12-04T12:09:27;3.13;;;2.30;;
20110;SDS011;10216;42.658;23.248;2023-12-04T12:11:53;3.53;;;2.80;;
20110;SDS011;10216;42.658;23.248;2023-12-04T12:14:22;2.60;;;2.30;;
20110;SDS011;10216;42.658;23.248;2023-12-04T12:16:48;4.00;;;2.90;;
20110;SDS011;10216;42.658;23.248;2023-12-04T12:19:13;2.90;;;2.40;;
20110;SDS011;10216;42.658;23.248;2023-12-04T12:21:39;4.03;;;3.00;;
20110;SDS011;10216;42.658;23.248;2023-12-04T12:24:05;3.13;;;2.60;;
20110;SDS011;10216;42.658;23.248;2023-12-04T12:26:32;3.10;;;2.80;;
20110;SDS011;10216;42.658;23.248;2023-12-04T12:28:58;3.20;;;2.70;;
20110;SDS011;10216;42.658;23.248;2023-12-04T12:31:23;3.40;;;2.70;;
20110;SDS011;10216;42.658;23.248;2023-12-04T12:33:49;4.23;;;2.73;;
20110;SDS011;10216;42.658;23.248;2023-12-04T12:36:14;3.30;;;2.57;;
20110;SDS011;10216;42.658;23.248;2023-12-04T12:38:43;3.57;;;3.27;;
20110;SDS011;10216;42.658;23.248;2023-12-04T12:41:15;3.60;;;2.77;;
20110;SDS011;10216;42.658;23.248;2023-12-04T12:43:42;4.37;;;3.03;;
20110;SDS011;10216;42.658;23.248;2023-12-04T12:46:07;3.10;;;2.47;;
20110;SDS011;10216;42.658;23.248;2023-12-04T12:48:33;3.10;;;2.80;;
20110;SDS011;10216;42.658;23.248;2023-12-04T12:50:59;3.13;;;2.43;;
20110;SDS011;10216;42.658;23.248;2023-12-04T12:53:24;3.50;;;2.63;;
20110;SDS011;10216;42.658;23.248;2023-12-04T12:55:50;10.13;;;5.80;;
20110;SDS011;10216;42.658;23.248;2023-12-04T12:58:15;5.43;;;2.47;;
20110;SDS011;10216;42.658;23.248;2023-12-04T13:00:45;4.73;;;2.30;;
20110;SDS011;10216;42.658;23.248;2023-12-04T13:03:14;1.67;;;1.43;;
20110;SDS011;10216;42.658;23.248;2023-12-04T13:05:40;4.33;;;1.10;;
20110;SDS011;10216;42.658;23.248;2023-12-04T13:08:05;4.57;;;1.10;;
20110;SDS011;10216;42.658;23.248;2023-12-04T13:10:31;1.30;;;1.20;;
20110;SDS011;10216;42.658;23.248;2023-12-04T13:12:56;3.93;;;1.13;;
20110;SDS011;10216;42.658;23.248;2023-12-04T13:15:22;0.93;;;0.90;;
20110;SDS011;10216;42.658;23.248;2023-12-04T13:17:48;1.17;;;1.07;;
20110;SDS011;10216;42.658;23.248;2023-12-04T13:20:13;0.80;;;0.80;;
20110;SDS011;10216;42.658;23.248;2023-12-04T13:22:40;1.40;;;1.30;;
20110;SDS011;10216;42.658;23.248;2023-12-04T13:25:06;0.50;;;0.50;;
20110;SDS011;10216;42.658;23.248;2023-12-04T13:27:35;1.83;;;1.27;;
20110;SDS011;10216;42.658;23.248;2023-12-04T13:30:04;1.37;;;1.17;;
20110;SDS011;10216;42.658;23.248;2023-12-04T13:32:31;1.10;;;1.10;;
20110;SDS011;10216;42.658;23.248;2023-12-04T13:34:58;0.93;;;0.93;;
20110;SDS011;10216;42.658;23.248;2023-12-04T13:37:24;0.90;;;0.83;;
20110;SDS011;10216;42.658;23.248;2023-12-04T13:39:52;0.93;;;0.93;;
20110;SDS011;10216;42.658;23.248;2023-12-04T13:42:23;1.30;;;1.20;;
20110;SDS011;10216;42.658;23.248;2023-12-04T13:45:10;1.37;;;0.90;;
20110;SDS011;10216;42.658;23.248;2023-12-04T13:47:35;0.53;;;0.53;;
20110;SDS011;10216;42.658;23.248;2023-12-04T13:50:01;1.60;;;1.50;;
20110;SDS011;10216;42.658;23.248;2023-12-04T13:52:27;1.30;;;1.20;;
20110;SDS011;10216;42.658;23.248;2023-12-04T13:54:58;2.37;;;1.70;;
20110;SDS011;10216;42.658;23.248;2023-12-04T13:57:23;1.13;;;1.07;;
20110;SDS011;10216;42.658;23.248;2023-12-04T14:00:08;2.07;;;1.97;;
20110;SDS011;10216;42.658;23.248;2023-12-04T14:02:34;2.03;;;1.90;;
20110;SDS011;10216;42.658;23.248;2023-12-04T14:05:02;1.13;;;1.13;;
20110;SDS011;10216;42.658;23.248;2023-12-04T14:07:28;2.17;;;1.87;;
20110;SDS011;10216;42.658;23.248;2023-12-04T14:09:53;2.00;;;1.20;;
20110;SDS011;10216;42.658;23.248;2023-12-04T14:12:19;1.77;;;1.50;;
20110;SDS011;10216;42.658;23.248;2023-12-04T14:14:44;1.87;;;1.77;;
20110;SDS011;10216;42.658;23.248;2023-12-04T14:17:10;3.63;;;2.17;;
20110;SDS011;10216;42.658;23.248;2023-12-04T14:19:37;3.23;;;1.90;;
20110;SDS011;10216;42.658;23.248;2023-12-04T14:22:04;4.07;;;1.43;;
20110;SDS011;10216;42.658;23.248;2023-12-04T14:24:30;2.13;;;1.43;;
20110;SDS011;10216;42.658;23.248;2023-12-04T14:26:56;1.20;;;1.10;;
20110;SDS011;10216;42.658;23.248;2023-12-04T14:29:21;3.13;;;1.73;;
20110;SDS011;10216;42.658;23.248;2023-12-04T14:31:47;2.37;;;1.33;;
20110;SDS011;10216;42.658;23.248;2023-12-04T14:34:12;3.00;;;1.60;;